Akiak, Alaska
Current Conditions -  °F | °C
As of 1:56 AM on Friday 24 Oct 2014 (Local Time) from PFKW Reporting Station
Clear Clear  
Wind Chill: 25°   Ceiling: Unl
Heat Index: 31°   Visibility: 10mi
Dew Point: 30°   Wind: 6mph
Humidity: 96%   Direction: 290°WNW
Pressure: 29.83"   Gusts: NA
Location:  60.92°N, 161.23°W
Report Text: PFKW 240956Z AUTO 29005KT 10SM CLR M01/M01 A2983 RMK AO2 SLP102 T10061011 FZRANO
Loading
Personal Weather Stations






























Interactive Weather Map
Tropical Storm Tracking
New forecast layout! Learn more

10-Day Weather Forecast

Advertisements
Track Severe Weather on mobile